X  Close Metar Aviation Weather Data     NZCH Christchurch International Airport
Temperature
34°F Temperature
34°F Dewpoint
100% Humidity



Wind
1 MPH
2 KM/H
0 M/S
1 KTS



300°
WNW
Current Conditions

Clear Clear
Pressure 1011.85 (hPa) - 29.88 (inHg)
Visibility 6 (mile) - 9.7 (km)
Airport
Airport-code NZCH

Location: Christchurch International Airport
Distance: 14 (mi)

Metar:
NZCH 171700Z AUTO 30001KT 9999 NCD 01/01 Q1012

Time: 18-04-2024 5:00 am NZST